Time;durP1;ratioP1;P1;durP2;ratioP2;P2;SDS_P1;SDS_P2;PMS_P1;PMS_P2;Temp;Humidity;BMP_temperature;BMP_pressure;BME280_temperature;BME280_humidity;BME280_pressure;Samples;Min_cycle;Max_cycle;Signal;HPM_P1;HPM_P2
2024/01/24 00:01:51;;;;;;;2.38;2.17;;;;;;;8.63;100.00;99232.31;4197065;28;20229;-52
2024/01/24 00:03:53;;;;;;;1.70;1.60;;;;;;;8.71;100.00;99237.50;4197063;28;20310;-54
2024/01/24 00:05:55;;;;;;;3.10;1.98;;;;;;;8.68;100.00;99246.13;4187220;28;20204;-51
2024/01/24 00:07:56;;;;;;;1.17;1.02;;;;;;;8.67;100.00;99233.53;4201347;28;20203;-51
2024/01/24 00:09:58;;;;;;;0.70;0.70;;;;;;;8.72;100.00;99241.88;4184443;28;20218;-50
2024/01/24 00:12:00;;;;;;;6.43;1.70;;;;;;;8.71;100.00;99241.06;4190219;28;20237;-51
2024/01/24 00:14:02;;;;;;;0.77;0.77;;;;;;;8.77;100.00;99233.88;4190840;28;20211;-53
2024/01/24 00:16:05;;;;;;;2.65;1.00;;;;;;;8.77;100.00;99222.97;4199324;28;20216;-51
2024/01/24 00:18:06;;;;;;;0.60;0.60;;;;;;;8.76;100.00;99232.22;4191501;28;20207;-53
2024/01/24 00:20:09;;;;;;;0.90;0.90;;;;;;;8.77;100.00;99203.88;4201317;28;20608;-51
2024/01/24 00:22:11;;;;;;;1.27;1.17;;;;;;;8.80;100.00;99217.06;4185827;28;20743;-51
2024/01/24 00:24:13;;;;;;;2.25;1.58;;;;;;;8.79;100.00;99204.47;4187390;28;20215;-51
2024/01/24 00:26:15;;;;;;;4.95;1.10;;;;;;;8.76;100.00;99226.75;4188511;28;20746;-50
2024/01/24 00:28:16;;;;;;;2.95;1.15;;;;;;;8.82;100.00;99228.63;4187204;28;20704;-51
2024/01/24 00:30:18;;;;;;;1.00;1.00;;;;;;;8.83;100.00;99238.47;4187620;28;20246;-50
2024/01/24 00:32:21;;;;;;;1.42;1.35;;;;;;;8.80;100.00;99233.44;4189897;28;20251;-53
2024/01/24 00:34:23;;;;;;;1.50;1.40;;;;;;;8.88;100.00;99231.28;4204345;28;20199;-52
2024/01/24 00:36:25;;;;;;;2.83;1.67;;;;;;;8.90;100.00;99211.97;4205921;28;20261;-50
2024/01/24 00:38:27;;;;;;;2.83;1.67;;;;;;;8.92;100.00;99223.47;4205577;28;20207;-50
2024/01/24 00:40:29;;;;;;;0.90;0.90;;;;;;;8.90;100.00;99239.25;4203012;28;20273;-50
2024/01/24 00:42:31;;;;;;;2.58;1.63;;;;;;;8.91;100.00;99241.75;4193594;28;20289;-51
2024/01/24 00:44:32;;;;;;;1.02;1.02;;;;;;;8.87;100.00;99231.50;4188062;28;20204;-51
2024/01/24 00:46:35;;;;;;;6.90;0.95;;;;;;;8.92;100.00;99216.13;4175712;28;20705;-51
2024/01/24 00:48:37;;;;;;;4.95;1.05;;;;;;;8.86;100.00;99227.09;4187966;28;20211;-51
2024/01/24 00:50:38;;;;;;;1.30;1.25;;;;;;;8.89;100.00;99232.13;4187323;28;20228;-49
2024/01/24 00:52:40;;;;;;;1.35;0.93;;;;;;;8.87;100.00;99228.75;4188729;28;20235;-50
2024/01/24 00:54:42;;;;;;;0.90;0.90;;;;;;;8.85;100.00;99244.53;4173012;28;20204;-51
2024/01/24 00:56:44;;;;;;;23.17;1.85;;;;;;;8.93;100.00;99211.50;4193793;28;20313;-52
2024/01/24 00:58:46;;;;;;;0.80;0.80;;;;;;;8.95;100.00;99212.13;4186425;28;20208;-52
2024/01/24 01:00:48;;;;;;;2.13;2.03;;;;;;;8.91;100.00;99214.47;4187851;28;20207;-52
2024/01/24 01:02:49;;;;;;;3.72;1.08;;;;;;;8.97;100.00;99207.28;4186436;28;20646;-51
2024/01/24 01:04:51;;;;;;;1.48;0.90;;;;;;;9.00;100.00;99212.28;4193227;28;20595;-51
2024/01/24 01:06:53;;;;;;;1.85;1.20;;;;;;;9.00;100.00;99199.47;4188276;28;20258;-51
2024/01/24 01:08:55;;;;;;;0.80;0.80;;;;;;;8.98;100.00;99209.78;4172213;28;20204;-50
2024/01/24 01:10:56;;;;;;;2.47;1.40;;;;;;;8.97;100.00;99201.81;4188836;28;20211;-51
2024/01/24 01:12:58;;;;;;;0.93;0.93;;;;;;;8.96;100.00;99195.50;4193847;28;20231;-51
2024/01/24 01:15:00;;;;;;;0.90;0.90;;;;;;;9.00;100.00;99188.56;4188789;28;20217;-51
2024/01/24 01:17:02;;;;;;;2.40;1.73;;;;;;;9.03;100.00;99185.38;4191934;28;20267;-53
2024/01/24 01:19:04;;;;;;;1.75;1.65;;;;;;;9.06;100.00;99189.53;4202991;28;20212;-51
2024/01/24 01:21:06;;;;;;;0.85;0.85;;;;;;;9.10;100.00;99191.63;4192374;28;20203;-51
2024/01/24 01:23:09;;;;;;;0.95;0.95;;;;;;;9.10;100.00;99190.78;4203097;28;20231;-50
2024/01/24 01:25:10;;;;;;;1.58;1.20;;;;;;;9.11;100.00;99197.91;4188967;28;20815;-51
2024/01/24 01:27:12;;;;;;;1.25;1.15;;;;;;;9.11;100.00;99190.56;4193400;28;20207;-50
2024/01/24 01:29:14;;;;;;;2.53;1.92;;;;;;;9.06;100.00;99184.09;4189660;28;20211;-50
2024/01/24 01:31:16;;;;;;;2.92;1.23;;;;;;;9.07;100.00;99181.13;4184971;28;20199;-50
2024/01/24 01:33:17;;;;;;;0.98;0.98;;;;;;;9.09;100.00;99156.34;4186974;28;20235;-49
2024/01/24 01:35:19;;;;;;;1.35;0.98;;;;;;;9.13;100.00;99173.94;4189472;28;20211;-51
2024/01/24 01:37:23;;;;;;;4.75;1.45;;;;;;;9.15;100.00;99161.75;4192241;28;20231;-50
2024/01/24 01:39:25;;;;;;;16.77;1.25;;;;;;;9.16;100.00;99157.13;4177067;28;20216;-49
2024/01/24 01:41:27;;;;;;;1.02;0.77;;;;;;;9.17;100.00;99167.84;4187701;28;20207;-50
2024/01/24 01:43:29;;;;;;;4.63;2.15;;;;;;;9.19;100.00;99175.78;4187043;28;20258;-50
2024/01/24 01:45:30;;;;;;;1.00;1.00;;;;;;;9.15;100.00;99178.13;4174589;28;20212;-50
2024/01/24 01:47:32;;;;;;;0.73;0.73;;;;;;;9.17;100.00;99170.56;4185822;28;20742;-48
2024/01/24 01:49:34;;;;;;;0.65;0.65;;;;;;;9.15;100.00;99160.91;4202936;28;20234;-50
2024/01/24 01:51:36;;;;;;;3.33;0.80;;;;;;;9.19;100.00;99157.50;4191382;28;20207;-50
2024/01/24 01:53:38;;;;;;;1.10;0.95;;;;;;;9.23;100.00;99163.34;4189973;28;20670;-50
2024/01/24 01:55:40;;;;;;;1.40;0.90;;;;;;;9.15;100.00;99169.94;4177393;28;20208;-49
2024/01/24 01:57:43;;;;;;;2.00;0.95;;;;;;;9.18;100.00;99171.38;4202424;28;20219;-50
2024/01/24 01:59:45;;;;;;;3.40;1.70;;;;;;;9.16;100.00;99166.13;4186655;28;20211;-50
2024/01/24 02:01:48;;;;;;;0.73;0.73;;;;;;;9.19;100.00;99173.91;4183406;28;20212;-51
2024/01/24 02:03:51;;;;;;;1.00;1.00;;;;;;;9.15;100.00;99175.38;4170511;28;20208;-51
2024/01/24 02:05:53;;;;;;;1.70;1.08;;;;;;;9.19;100.00;99173.91;4187755;28;20203;-51
2024/01/24 02:07:54;;;;;;;0.98;0.98;;;;;;;9.16;100.00;99162.59;4171415;28;20296;-51
2024/01/24 02:09:56;;;;;;;1.40;1.20;;;;;;;9.15;100.00;99160.91;4189458;28;20235;-51
2024/01/24 02:11:58;;;;;;;1.00;1.00;;;;;;;9.11;100.00;99137.84;4201732;28;20223;-51
2024/01/24 02:14:00;;;;;;;0.88;0.88;;;;;;;9.12;100.00;99151.28;4186604;28;20211;-50
2024/01/24 02:16:05;;;;;;;3.65;1.20;;;;;;;9.13;100.00;99146.63;4195126;28;20230;-50
2024/01/24 02:18:07;;;;;;;1.17;1.13;;;;;;;9.14;100.00;99126.50;4201983;28;20207;-51
2024/01/24 02:20:10;;;;;;;1.10;1.10;;;;;;;9.11;100.00;99135.97;4190966;28;20242;-50
2024/01/24 02:22:12;;;;;;;0.70;0.70;;;;;;;9.14;100.00;99137.41;4173501;28;20224;-51
2024/01/24 02:24:14;;;;;;;0.93;0.93;;;;;;;9.15;100.00;99133.63;4193310;28;20199;-50
2024/01/24 02:26:16;;;;;;;1.17;1.08;;;;;;;9.10;100.00;99141.63;4175654;28;20192;-51
2024/01/24 02:28:18;;;;;;;0.80;0.80;;;;;;;9.10;100.00;99136.19;4194791;28;20208;-51
2024/01/24 02:30:20;;;;;;;0.65;0.65;;;;;;;9.07;100.00;99136.63;4202606;28;20269;-49
2024/01/24 02:32:22;;;;;;;1.75;1.13;;;;;;;9.10;100.00;99130.72;4191942;28;20331;-51
2024/01/24 02:34:23;;;;;;;0.98;0.98;;;;;;;9.10;100.00;99136.19;4186180;28;20214;-51
2024/01/24 02:36:25;;;;;;;1.55;0.90;;;;;;;9.08;100.00;99149.22;4180161;28;20623;-50
2024/01/24 02:38:27;;;;;;;1.63;1.52;;;;;;;9.10;100.00;99147.94;4186588;28;20208;-50
2024/01/24 02:40:29;;;;;;;0.90;0.90;;;;;;;9.11;100.00;99155.06;4201262;28;20757;-51
2024/01/24 02:42:31;;;;;;;0.85;0.85;;;;;;;9.10;100.00;99147.09;4189696;28;20237;-51
2024/01/24 02:44:33;;;;;;;0.73;0.70;;;;;;;9.10;100.00;99130.72;4188261;28;20217;-50
2024/01/24 02:46:35;;;;;;;1.05;1.05;;;;;;;9.08;100.00;99152.78;4175297;28;20250;-50
2024/01/24 02:48:36;;;;;;;0.98;0.98;;;;;;;9.07;100.00;99151.13;4199264;28;20253;-50
2024/01/24 02:50:38;;;;;;;0.85;0.85;;;;;;;9.05;100.00;99138.75;4201928;28;20203;-50
2024/01/24 02:52:40;;;;;;;0.80;0.80;;;;;;;9.02;100.00;99150.13;4182017;28;20223;-50
2024/01/24 02:54:42;;;;;;;1.75;1.08;;;;;;;9.01;100.00;99153.91;4185308;28;20585;-51
2024/01/24 02:56:44;;;;;;;1.17;1.15;;;;;;;9.01;100.00;99156.66;4203474;28;20287;-51
2024/01/24 02:58:46;;;;;;;0.82;0.82;;;;;;;9.03;100.00;99165.44;4189239;28;20203;-51
2024/01/24 03:00:48;;;;;;;1.15;1.02;;;;;;;9.01;100.00;99153.91;4187001;28;20208;-50
2024/01/24 03:02:50;;;;;;;0.70;0.70;;;;;;;8.98;100.00;99157.94;4191647;28;20707;-50
2024/01/24 03:04:51;;;;;;;0.80;0.80;;;;;;;9.00;100.00;99144.03;4190971;28;20204;-51
2024/01/24 03:06:55;;;;;;;1.05;1.02;;;;;;;8.98;100.00;99163.38;4201584;28;20248;-51
2024/01/24 03:08:58;;;;;;;2.05;0.95;;;;;;;9.07;100.00;99155.72;4193081;28;20210;-51
2024/01/24 03:11:00;;;;;;;0.80;0.80;;;;;;;9.04;100.00;99137.94;4186605;28;20568;-51
2024/01/24 03:13:02;;;;;;;1.00;0.63;;;;;;;9.04;100.00;99128.88;4188704;28;20601;-50
2024/01/24 03:15:05;;;;;;;0.88;0.85;;;;;;;9.07;100.00;99122.97;4202599;28;20202;-50
2024/01/24 03:17:08;;;;;;;2.72;1.58;;;;;;;9.03;100.00;99135.41;4192176;28;20230;-51
2024/01/24 03:19:10;;;;;;;0.90;0.90;;;;;;;9.06;100.00;99129.50;4189040;28;20203;-51
2024/01/24 03:21:16;;;;;;;0.77;0.77;;;;;;;9.09;100.00;99129.06;4189324;28;20316;-50
2024/01/24 03:23:17;;;;;;;1.30;1.30;;;;;;;9.11;100.00;99116.84;4185387;28;20791;-50
2024/01/24 03:25:19;;;;;;;0.98;0.90;;;;;;;9.11;100.00;99126.94;4187539;28;20257;-50
2024/01/24 03:27:21;;;;;;;1.02;0.98;;;;;;;9.11;100.00;99126.94;4188457;28;20199;-50
2024/01/24 03:29:23;;;;;;;1.08;0.98;;;;;;;9.10;100.00;99109.72;4188501;28;20231;-50
2024/01/24 03:31:25;;;;;;;0.90;0.90;;;;;;;9.15;100.00;99100.84;4202858;28;20207;-50
2024/01/24 03:33:27;;;;;;;0.60;0.60;;;;;;;9.16;100.00;99118.91;4187178;28;20220;-52
2024/01/24 03:35:28;;;;;;;0.70;0.70;;;;;;;9.19;100.00;99130.19;4188083;28;20204;-51
2024/01/24 03:37:30;;;;;;;3.40;0.73;;;;;;;9.17;100.00;99140.53;4193518;28;20226;-52
2024/01/24 03:39:32;;;;;;;1.27;1.27;;;;;;;9.19;100.00;99140.28;4189518;28;20258;-51
2024/01/24 03:41:35;;;;;;;1.40;1.30;;;;;;;9.19;100.00;99146.59;4201009;28;20264;-50
2024/01/24 03:43:40;;;;;;;1.10;0.98;;;;;;;9.17;100.00;99153.31;4201301;28;20207;-51
2024/01/24 03:45:42;;;;;;;0.70;0.70;;;;;;;9.20;100.00;99142.78;4186458;28;20215;-50
2024/01/24 03:47:48;;;;;;;1.00;0.88;;;;;;;9.26;100.00;99151.97;4190175;28;20285;-51
2024/01/24 03:49:50;;;;;;;1.25;0.70;;;;;;;9.26;100.00;99141.03;4191500;28;20266;-51
2024/01/24 03:51:53;;;;;;;0.60;0.60;;;;;;;9.31;100.00;99138.47;4189906;28;20254;-49
2024/01/24 03:53:54;;;;;;;1.35;1.25;;;;;;;9.31;100.00;99149.41;4185793;28;20211;-50
2024/01/24 03:55:56;;;;;;;1.00;1.00;;;;;;;9.31;100.00;99143.94;4184386;28;20216;-51
2024/01/24 03:57:58;;;;;;;0.60;0.60;;;;;;;9.30;100.00;99153.19;4185253;28;20225;-50
2024/01/24 04:00:00;;;;;;;1.00;1.00;;;;;;;9.34;100.00;99147.03;4173423;28;20208;-51
2024/01/24 04:02:02;;;;;;;3.30;1.13;;;;;;;9.35;100.00;99145.16;4190013;28;20642;-51
2024/01/24 04:04:04;;;;;;;0.73;0.73;;;;;;;9.42;100.00;99132.28;4184838;28;20253;-50
2024/01/24 04:06:06;;;;;;;0.82;0.70;;;;;;;9.42;100.00;99140.47;4188402;28;20216;-50
2024/01/24 04:08:08;;;;;;;0.70;0.70;;;;;;;9.45;100.00;99134.53;4189052;28;20477;-51
2024/01/24 04:10:09;;;;;;;0.60;0.60;;;;;;;9.47;100.00;99122.31;4203280;28;20619;-52
2024/01/24 04:12:11;;;;;;;0.77;0.77;;;;;;;9.49;100.00;99127.56;4187797;28;20234;-51
2024/01/24 04:14:13;;;;;;;0.60;0.60;;;;;;;9.52;100.00;99111.53;4186296;28;20234;-51
2024/01/24 04:16:15;;;;;;;0.60;0.60;;;;;;;9.51;100.00;99118.06;4189717;28;20204;-51
2024/01/24 04:18:16;;;;;;;0.90;0.90;;;;;;;9.55;100.00;99113.00;4192194;28;20218;-52
2024/01/24 04:20:18;;;;;;;0.90;0.90;;;;;;;9.53;100.00;99104.16;4186890;28;20207;-51
2024/01/24 04:22:20;;;;;;;1.20;0.70;;;;;;;9.56;100.00;99092.78;4190770;28;20226;-51
2024/01/24 04:24:22;;;;;;;0.70;0.70;;;;;;;9.56;100.00;99103.72;4201132;28;20204;-50
2024/01/24 04:26:24;;;;;;;0.60;0.60;;;;;;;9.61;100.00;99087.50;4199474;28;20212;-50
2024/01/24 04:28:25;;;;;;;0.60;0.60;;;;;;;9.61;100.00;99091.03;4188593;28;20611;-50
2024/01/24 04:30:27;;;;;;;1.27;0.93;;;;;;;9.63;100.00;99080.69;4186430;28;20212;-50
2024/01/24 04:32:29;;;;;;;4.55;0.68;;;;;;;9.66;100.00;99076.69;4183730;28;20231;-50
2024/01/24 04:34:31;;;;;;;0.82;0.82;;;;;;;9.69;100.00;99065.31;4190774;28;20207;-50
2024/01/24 04:36:33;;;;;;;0.70;0.70;;;;;;;9.70;100.00;99075.16;4189783;28;20211;-50
2024/01/24 04:38:37;;;;;;;0.70;0.70;;;;;;;9.73;100.00;99082.88;4187482;28;20211;-50
2024/01/24 04:40:39;;;;;;;0.73;0.73;;;;;;;9.75;100.00;99091.72;4200496;28;20214;-50
2024/01/24 04:42:41;;;;;;;0.80;0.80;;;;;;;9.81;100.00;99085.31;4187829;28;20318;-50
2024/01/24 04:44:43;;;;;;;0.52;0.52;;;;;;;9.83;100.00;99072.25;4181966;28;20327;-50
2024/01/24 04:46:45;;;;;;;0.50;0.50;;;;;;;9.82;100.00;99081.53;4190957;28;20291;-50
2024/01/24 04:48:47;;;;;;;1.23;0.82;;;;;;;9.88;100.00;99094.25;4182370;28;20203;-50
2024/01/24 04:50:49;;;;;;;0.63;0.63;;;;;;;9.84;100.00;99098.50;4188924;28;20234;-49
2024/01/24 04:52:51;;;;;;;0.60;0.60;;;;;;;9.84;100.00;99090.31;4186637;28;20232;-51
2024/01/24 04:54:53;;;;;;;0.70;0.70;;;;;;;9.84;100.00;99103.97;4188514;28;20200;-51
2024/01/24 04:56:55;;;;;;;0.50;0.50;;;;;;;9.90;100.00;99103.06;4170265;28;20863;-51
2024/01/24 04:58:56;;;;;;;0.70;0.70;;;;;;;9.88;100.00;99108.75;4184463;28;20207;-50
2024/01/24 05:00:58;;;;;;;1.00;0.80;;;;;;;9.86;100.00;99113.63;4174376;28;20204;-50
2024/01/24 05:03:00;;;;;;;0.60;0.60;;;;;;;9.85;100.00;99119.31;4186809;28;20224;-51
2024/01/24 05:05:05;;;;;;;0.60;0.60;;;;;;;9.85;100.00;99119.31;4187591;28;20791;-51
2024/01/24 05:07:07;;;;;;;0.65;0.65;;;;;;;9.82;100.00;99119.78;4202710;28;20681;-51
2024/01/24 05:09:09;;;;;;;0.50;0.50;;;;;;;9.89;100.00;99120.53;4199485;28;20226;-50
2024/01/24 05:11:11;;;;;;;0.60;0.60;;;;;;;9.91;100.00;99104.72;4187730;28;20679;-49
2024/01/24 05:13:13;;;;;;;0.60;0.60;;;;;;;9.94;100.00;99107.81;4186869;28;20666;-50
2024/01/24 05:15:14;;;;;;;0.57;0.57;;;;;;;9.89;100.00;99117.78;4205766;28;20203;-49
2024/01/24 05:17:16;;;;;;;0.70;0.70;;;;;;;9.89;100.00;99112.31;4204460;28;20690;-49
2024/01/24 05:19:18;;;;;;;0.50;0.50;;;;;;;9.91;100.00;99104.72;4188201;28;20208;-51
2024/01/24 05:21:20;;;;;;;0.60;0.60;;;;;;;9.93;100.00;99102.59;4187262;28;20204;-50
2024/01/24 05:23:21;;;;;;;0.40;0.40;;;;;;;10.04;100.00;99099.94;4171062;28;20714;-51
2024/01/24 05:25:23;;;;;;;0.65;0.65;;;;;;;10.05;100.00;99098.03;4187377;28;20207;-51
2024/01/24 05:27:25;;;;;;;1.60;0.98;;;;;;;10.06;100.00;99088.75;4171679;28;20213;-51
2024/01/24 05:29:27;;;;;;;8.43;0.77;;;;;;;10.06;100.00;99094.22;4185607;28;20299;-51
2024/01/24 05:31:29;;;;;;;0.45;0.45;;;;;;;10.03;100.00;99094.66;4188377;28;20216;-50
2024/01/24 05:33:30;;;;;;;1.38;0.88;;;;;;;10.10;100.00;99089.97;4183642;28;20281;-50
2024/01/24 05:35:32;;;;;;;1.98;0.65;;;;;;;10.07;100.00;99120.53;4186931;28;20226;-49
2024/01/24 05:37:35;;;;;;;0.47;0.47;;;;;;;10.17;100.00;99115.31;4202676;28;20559;-50
2024/01/24 05:39:36;;;;;;;0.40;0.40;;;;;;;10.17;100.00;99101.66;4186116;28;20214;-49
2024/01/24 05:41:38;;;;;;;0.70;0.70;;;;;;;10.24;100.00;99113.31;4174846;28;20633;-51
2024/01/24 05:43:40;;;;;;;3.50;0.90;;;;;;;10.24;100.00;99118.78;4172110;28;20212;-51
2024/01/24 05:45:42;;;;;;;0.60;0.60;;;;;;;10.28;100.00;99120.81;4193732;28;20207;-50
2024/01/24 05:47:43;;;;;;;0.47;0.47;;;;;;;10.37;100.00;99119.44;4186726;28;20203;-50
2024/01/24 05:49:46;;;;;;;0.57;0.57;;;;;;;10.37;100.00;99093.97;4204619;28;20206;-50
2024/01/24 05:51:49;;;;;;;0.50;0.50;;;;;;;10.35;100.00;99107.88;4191284;28;20214;-50
2024/01/24 05:53:51;;;;;;;0.45;0.45;;;;;;;10.42;100.00;99096.84;4187607;28;20277;-52
2024/01/24 05:55:53;;;;;;;0.75;0.55;;;;;;;10.39;100.00;99089.09;4187365;28;20207;-49
2024/01/24 05:57:54;;;;;;;0.57;0.57;;;;;;;10.43;100.00;99087.56;4189277;28;20231;-50
2024/01/24 05:59:56;;;;;;;0.50;0.50;;;;;;;10.48;100.00;99098.63;4186952;28;20248;-50
2024/01/24 06:01:58;;;;;;;0.50;0.50;;;;;;;10.49;100.00;99094.84;4187147;28;20230;-50
2024/01/24 06:04:00;;;;;;;0.50;0.50;;;;;;;10.47;100.00;99091.50;4189676;28;20207;-50
2024/01/24 06:06:02;;;;;;;0.47;0.47;;;;;;;10.54;100.00;99086.75;4202357;28;20676;-49
2024/01/24 06:08:05;;;;;;;0.40;0.40;;;;;;;10.53;100.00;99085.06;4185113;28;20218;-49
2024/01/24 06:10:07;;;;;;;0.60;0.60;;;;;;;10.56;100.00;99095.56;4185122;28;20216;-49
2024/01/24 06:12:09;;;;;;;0.55;0.55;;;;;;;10.66;100.00;99076.63;4203290;28;20561;-50
2024/01/24 06:14:11;;;;;;;0.60;0.60;;;;;;;10.62;100.00;99094.63;4188423;28;20261;-50
2024/01/24 06:16:13;;;;;;;0.47;0.47;;;;;;;10.66;100.00;99084.84;4189558;28;20676;-49
2024/01/24 06:18:14;;;;;;;0.60;0.60;;;;;;;10.70;100.00;99100.59;4185070;28;20281;-50
2024/01/24 06:20:16;;;;;;;0.50;0.50;;;;;;;10.77;100.00;99104.03;4185078;28;20207;-48
2024/01/24 06:22:18;;;;;;;0.77;0.77;;;;;;;10.73;100.00;99112.94;4200364;28;20284;-49
2024/01/24 06:24:20;;;;;;;0.60;0.60;;;;;;;10.71;100.00;99098.66;4181881;28;20667;-49
2024/01/24 06:26:23;;;;;;;0.52;0.52;;;;;;;10.70;100.00;99100.59;4191043;28;20207;-50
2024/01/24 06:28:25;;;;;;;0.45;0.45;;;;;;;10.74;100.00;99114.63;4191535;28;20596;-49
2024/01/24 06:30:27;;;;;;;0.50;0.50;;;;;;;10.68;100.00;99119.13;4184823;28;20220;-49
2024/01/24 06:32:32;;;;;;;0.55;0.55;;;;;;;10.78;100.00;99106.50;4187340;28;20247;-49
2024/01/24 06:34:33;;;;;;;0.50;0.50;;;;;;;10.76;100.00;99117.94;4186421;28;20696;-50
2024/01/24 06:36:35;;;;;;;0.50;0.50;;;;;;;10.78;100.00;99103.78;4191128;28;20612;-49
2024/01/24 06:38:37;;;;;;;0.50;0.50;;;;;;;10.84;100.00;99102.84;4185021;28;20278;-50
2024/01/24 06:40:39;;;;;;;0.70;0.70;;;;;;;10.86;100.00;99091.66;4183799;28;20231;-50
2024/01/24 06:42:40;;;;;;;0.57;0.57;;;;;;;10.88;100.00;99097.72;4189133;28;20237;-50
2024/01/24 06:44:42;;;;;;;0.80;0.80;;;;;;;10.89;100.00;99092.00;4186556;28;20231;-50
2024/01/24 06:46:46;;;;;;;0.68;0.68;;;;;;;10.89;100.00;99100.22;4189244;28;20647;-50
2024/01/24 06:48:48;;;;;;;0.65;0.65;;;;;;;10.88;100.00;99093.09;4189667;28;20680;-51
2024/01/24 06:50:49;;;;;;;0.50;0.50;;;;;;;10.91;100.00;99095.34;4189600;28;20199;-49
2024/01/24 06:52:51;;;;;;;0.70;0.70;;;;;;;10.91;100.00;99111.75;4189874;28;20722;-49
2024/01/24 06:54:53;;;;;;;0.68;0.68;;;;;;;10.97;100.00;99121.75;4189778;28;20249;-50
2024/01/24 06:56:55;;;;;;;0.50;0.50;;;;;;;10.92;100.00;99126.28;4189774;28;20211;-49
2024/01/24 06:58:56;;;;;;;0.50;0.50;;;;;;;10.97;100.00;99140.94;4189192;28;20230;-50
2024/01/24 07:00:58;;;;;;;0.50;0.50;;;;;;;10.97;100.00;99127.25;4184929;28;20215;-48
2024/01/24 07:03:00;;;;;;;0.70;0.70;;;;;;;10.96;100.00;99130.22;4188924;28;20227;-50
2024/01/24 07:05:03;;;;;;;0.50;0.50;;;;;;;11.01;100.00;99120.22;4183718;28;20673;-51
2024/01/24 07:07:05;;;;;;;0.60;0.60;;;;;;;11.06;100.00;99117.63;4201937;28;20207;-50
2024/01/24 07:09:07;;;;;;;0.57;0.52;;;;;;;11.00;100.00;99126.78;4186641;28;20195;-51
2024/01/24 07:11:09;;;;;;;0.68;0.68;;;;;;;11.06;100.00;99134.06;4203931;28;20212;-51
2024/01/24 07:13:10;;;;;;;0.50;0.50;;;;;;;11.05;100.00;99126.88;4189075;28;20286;-50
2024/01/24 07:15:12;;;;;;;0.50;0.50;;;;;;;11.13;100.00;99126.53;4189239;28;20868;-51
2024/01/24 07:17:15;;;;;;;0.60;0.60;;;;;;;11.12;100.00;99127.59;4186951;28;20302;-50
2024/01/24 07:19:16;;;;;;;0.43;0.43;;;;;;;11.12;100.00;99135.81;4187725;28;20199;-49
2024/01/24 07:21:18;;;;;;;0.50;0.50;;;;;;;11.14;100.00;99147.38;4190830;28;20203;-51
2024/01/24 07:23:20;;;;;;;0.70;0.70;;;;;;;11.14;100.00;99135.59;4187593;28;20227;-50
2024/01/24 07:25:22;;;;;;;0.63;0.63;;;;;;;11.17;100.00;99144.16;4186998;28;20250;-50
2024/01/24 07:27:24;;;;;;;0.70;0.70;;;;;;;11.17;100.00;99144.16;4202222;28;20213;-49
2024/01/24 07:29:26;;;;;;;0.57;0.57;;;;;;;11.18;100.00;99142.25;4189117;28;20684;-50
2024/01/24 07:31:28;;;;;;;0.50;0.50;;;;;;;11.19;100.00;99136.56;4184979;28;20669;-51
2024/01/24 07:33:30;;;;;;;0.55;0.55;;;;;;;11.19;100.00;99141.19;4185998;28;20239;-49
2024/01/24 07:35:32;;;;;;;1.10;0.70;;;;;;;11.19;100.00;99142.03;4199532;28;20206;-50
2024/01/24 07:37:34;;;;;;;0.50;0.50;;;;;;;11.23;100.00;99150.59;4184680;28;20624;-50
2024/01/24 07:39:35;;;;;;;0.60;0.60;;;;;;;11.23;100.00;99159.63;4188809;28;20207;-50
2024/01/24 07:41:37;;;;;;;0.60;0.60;;;;;;;11.22;100.00;99181.78;4187319;28;20211;-49
2024/01/24 07:43:48;;;;;;;0.60;0.60;;;;;;;11.20;100.00;99182.06;4188595;28;20207;-49
2024/01/24 07:45:50;;;;;;;0.40;0.40;;;;;;;11.26;100.00;99185.72;4189139;28;20293;-50
2024/01/24 07:47:53;;;;;;;0.60;0.60;;;;;;;11.26;100.00;99202.16;4189564;28;20195;-47
2024/01/24 07:49:55;;;;;;;0.80;0.60;;;;;;;11.28;100.00;99195.38;4171313;28;20210;-50
2024/01/24 07:51:58;;;;;;;0.50;0.50;;;;;;;11.26;100.00;99192.06;4192029;28;20230;-50
2024/01/24 07:53:59;;;;;;;0.60;0.60;;;;;;;11.33;100.00;99175.47;4186639;28;20713;-50
2024/01/24 07:56:03;;;;;;;0.50;0.50;;;;;;;11.32;100.00;99185.59;4188291;28;20214;-50
2024/01/24 07:58:20;;;;;;;0.60;0.60;;;;;;;11.34;100.00;99188.97;4186776;28;20760;-51
2024/01/24 08:00:22;;;;;;;0.60;0.60;;;;;;;11.35;100.00;99168.69;4187749;28;20665;-53
2024/01/24 08:02:24;;;;;;;0.60;0.60;;;;;;;11.36;100.00;99191.44;4204147;28;20313;-52
2024/01/24 08:04:26;;;;;;;0.40;0.40;;;;;;;11.32;100.00;99169.16;4189332;28;20296;-50
2024/01/24 08:06:28;;;;;;;0.50;0.50;;;;;;;11.38;100.00;99197.53;4183187;28;20211;-50
2024/01/24 08:08:30;;;;;;;0.52;0.52;;;;;;;11.35;100.00;99211.69;4183722;28;20688;-51
2024/01/24 08:10:31;;;;;;;4.78;0.55;;;;;;;11.37;100.00;99210.38;4201224;28;20298;-50
2024/01/24 08:12:33;;;;;;;0.52;0.52;;;;;;;11.38;100.00;99212.06;4187024;28;20323;-52
2024/01/24 08:14:36;;;;;;;0.50;0.50;;;;;;;11.39;100.00;99224.72;4192621;28;20204;-50
2024/01/24 08:17:08;;;;;;;0.40;0.40;;;;;;;11.31;100.00;99216.81;4190451;28;20250;-48
2024/01/24 08:19:09;;;;;;;0.50;0.50;;;;;;;11.33;100.00;99220.19;4185650;28;20821;-51
2024/01/24 08:21:12;;;;;;;0.50;0.50;;;;;;;11.36;100.00;99214.19;4186603;28;20298;-51
2024/01/24 08:23:13;;;;;;;0.70;0.70;;;;;;;11.37;100.00;99218.59;4188819;28;20269;-51
2024/01/24 08:25:16;;;;;;;0.32;0.32;;;;;;;11.40;100.00;99231.84;4185996;28;20694;-49
2024/01/24 08:27:18;;;;;;;0.45;0.45;;;;;;;11.36;100.00;99241.59;4182663;28;20207;-49
2024/01/24 08:29:20;;;;;;;0.60;0.60;;;;;;;11.45;100.00;99234.69;4178636;28;20248;-49
2024/01/24 08:31:33;;;;;;;0.40;0.40;;;;;;;11.43;100.00;99241.50;4171863;28;20208;-50
2024/01/24 08:33:37;;;;;;;0.50;0.50;;;;;;;11.43;100.00;99242.31;4173491;28;20313;-49
2024/01/24 08:35:39;;;;;;;0.50;0.50;;;;;;;11.38;100.00;99244.94;4154918;28;20205;-48
2024/01/24 08:37:42;;;;;;;0.50;0.50;;;;;;;11.48;100.00;99256.16;4167381;28;20587;-48
2024/01/24 08:39:44;;;;;;;0.60;0.60;;;;;;;11.51;100.00;99252.09;4170339;28;20342;-47
2024/01/24 08:41:46;;;;;;;0.40;0.40;;;;;;;11.55;100.00;99259.59;4166341;28;20212;-47
2024/01/24 08:43:48;;;;;;;0.52;0.52;;;;;;;11.50;100.00;99264.97;4181390;28;20205;-51
2024/01/24 08:45:50;;;;;;;0.65;0.60;;;;;;;11.52;100.00;99268.28;4181933;28;20204;-51
2024/01/24 08:47:52;;;;;;;0.75;0.75;;;;;;;11.57;100.00;99267.59;4167378;28;20221;-49
2024/01/24 08:49:56;;;;;;;3.03;1.67;;;;;;;11.52;100.00;99273.78;4171984;28;20208;-50
2024/01/24 08:51:58;;;;;;;2.78;1.83;;;;;;;11.56;100.00;99280.47;4168096;28;20239;-50
2024/01/24 08:54:01;;;;;;;2.17;1.27;;;;;;;11.58;100.00;99294.78;4172750;28;20207;-48
2024/01/24 08:56:03;;;;;;;5.18;1.00;;;;;;;11.62;100.00;99295.16;4170200;28;20291;-49
2024/01/24 08:58:05;;;;;;;2.17;0.93;;;;;;;11.60;100.00;99284.44;4168008;28;20216;-49
2024/01/24 09:00:08;;;;;;;0.60;0.60;;;;;;;11.68;100.00;99284.09;4173434;28;20214;-50
2024/01/24 09:02:10;;;;;;;0.40;0.40;;;;;;;11.70;100.00;99273.69;4166591;28;20255;-50
2024/01/24 09:04:12;;;;;;;0.70;0.70;;;;;;;11.75;100.00;99271.09;4169811;28;20246;-50
2024/01/24 09:06:15;;;;;;;0.68;0.43;;;;;;;11.86;100.00;99269.41;4165341;28;20810;-49
2024/01/24 09:08:17;;;;;;;1.00;0.60;;;;;;;12.02;100.00;99264.03;4169919;28;20592;-49
2024/01/24 09:10:19;;;;;;;1.08;0.52;;;;;;;12.14;100.00;99273.06;4166516;28;20682;-48
2024/01/24 09:12:21;;;;;;;0.73;0.70;;;;;;;12.16;100.00;99287.38;4158431;28;20799;-49
2024/01/24 09:14:24;;;;;;;0.52;0.52;;;;;;;12.19;100.00;99286.91;4170758;28;20665;-49
2024/01/24 09:16:26;;;;;;;0.50;0.50;;;;;;;12.28;100.00;99296.41;4167965;28;20254;-49
2024/01/24 09:18:28;;;;;;;0.40;0.40;;;;;;;12.22;100.00;99302.88;4171259;28;20231;-49
2024/01/24 09:20:30;;;;;;;0.40;0.40;;;;;;;12.20;100.00;99299.53;4173558;28;20680;-49
2024/01/24 09:22:32;;;;;;;0.70;0.70;;;;;;;12.04;100.00;99300.28;4169300;28;20304;-48
2024/01/24 09:24:34;;;;;;;0.45;0.45;;;;;;;11.87;100.00;99299.34;4168271;28;20264;-48
2024/01/24 09:26:36;;;;;;;1.05;0.85;;;;;;;11.81;100.00;99307.69;4168309;28;20212;-49
2024/01/24 09:28:37;;;;;;;0.60;0.60;;;;;;;11.78;100.00;99289.78;4170458;28;20207;-50
2024/01/24 09:30:39;;;;;;;0.60;0.60;;;;;;;11.74;100.00;99302.31;4168621;28;20208;-49
2024/01/24 09:32:41;;;;;;;0.40;0.40;;;;;;;11.82;100.00;99296.47;4170113;28;20228;-49